Relevés horaires Melle (Belgique)


Relevés horaires à Melle - Vendredi 13 Nov. 2015
Heure UTC1 Température [°C] Vent [km/h] Hum. [%] Pres.4 [hPa] Visi. [Km] Nébu. [octa] Préc.5 [mm] Cond.
2m. Res. Ros. Dir.2 Vit. Moy. Raf.3
23:00 7.9 6.7 3.0 OSO 7.4 9.3 14.8 71 1027.6(1.8/3h) -- -- -- --
22:00 8.8 7.3 3.1 O 9.3 11.1 20.4 67 1027(1.8/3h) -- -- -- --
21:00 8.8 7.3 2.8 O 9.3 11.1 20.4 66 1026.4(2.1/3h) -- -- -- --
20:00 8.5 7 3.3 OSO 9.3 9.3 16.7 70 1025.7(2.3/3h) -- -- -- --
19:00 9.1 7.7 3.3 OSO 9.3 9.3 14.8 67 1025.2(2.3/3h) -- -- -- --
18:00 9.6 8.3 4.6 O 9.3 22.2 35.2 71 1024.3(1.4/3h) -- -- 1/12h
--
17:00 10.1 8.9 6.5 OSO 9.3 11.1 18.5 78 1023.4(1.7/3h) -- -- -- --
16:00 10.7 9.3 7.3 OSO 11.1 14.8 24.1 79 1022.9(0.6/3h) -- -- -- --
15:00 10.2 8.4 7.8 O 13.0 22.2 35.2 85 1022.9(0.1/3h) -- -- -- --
14:00 14.0 13.3 7.5 OSO 11.1 16.7 24.1 65 1021.7(-1.8/3h) -- -- -- --
13:00 14.2 13.1 7.3 OSO 14.8 14.8 29.6 63 1022.3(-1.1/3h) -- -- -- --
12:00 13.6 13 8.3 SO 9.3 14.8 20.4 70 1022.8(-0.3/3h) -- -- 0.3/6h
--
11:00 13.0 12.3 6.3 OSO 9.3 9.3 13.0 64 1023.5(1.1/3h) -- -- -- --
10:00 12.3 11.5 7.4 O 9.3 11.1 16.7 72 1023.4(1.5/3h) -- -- -- --
09:00 12.7 12 10.1 SO 9.3 14.8 20.4 84 1023.1(1.3/3h) -- -- -- --
08:00 11.8 11.2 9.4 SO 7.4 7.4 13.0 85 1022.4(1.9/3h) -- -- -- --
07:00 12.0 11.5 9.2 SO 7.4 14.8 20.4 83 1021.9(1.2/3h) -- -- -- --
06:00 13.0 12.3 10.9 OSO 9.3 13.0 20.4 87 1021.8(0.8/3h) -- -- 0.2/12h
--
05:00 13.1 12.2 10.6 SO 11.1 11.1 18.5 85 1020.5(-0.7/3h) -- -- -- --
04:00 13.4 12.8 10.6 SSO 9.3 9.3 16.7 83 1020.7(-0.2/3h) -- -- -- --
03:00 13.4 13.1 10.6 SO 7.4 11.1 16.7 83 1021(-0.4/3h) -- -- -- --
02:00 13.2 12.6 10.3 SSO 9.3 11.1 14.8 83 1021.2(-0.3/3h) -- -- -- --
01:00 13.6 13 10.4 SSO 9.3 9.3 14.8 81 1020.9(-0.9/3h) -- -- -- --
00:00 13.8 13.3 10.5 SSO 9.3 11.1 16.7 80 1021.4(-0.6/3h) -- -- 0/0h
0/6h
--

1 Coordinated Universal Time. Actuellement il est 16:00 locale et 14:00 UTC.

2 Le vent souffle depuis la direction indiquée vers la direction oposée.

3 Les rafales max. sont disponible 40 min après l'heure du relevé.

4 Pour les stations d'altitude (plus de 600m) le géopotentiel du niveau le plus proche de la pression obligatoire est indiqué.

5 Les stations disposant d'un diffuseur peuvent indiquer "trace". Cela signifie que des précipitations ont touchés le sol mais que la quantité est inférieure à 0.1 mm.

Récapitulatif de la journée
Température [°C] Vent [km/h] Ensoleillement4 [h] Precipitations totale5 [mm] Pression [Hpa]
Min1 Max.2 Moy.3 Max. Min Max.
12.4 14.4 12.5 35.2 0 h 0 min 0 1020.5 1027.6

1 Température minimale relevée entre 18:00 UTC la veille et 18:00 UTC le jour donné.

2 Température maximale relevée entre 06:00 UTC le jour donné et 06:00 UTC le lendemain.

3 Vent moyen de la journée basé sur les relevés horaires.

4 Ensoleillement en heures relevé entre 06:00 UTC la veille et 06:00 UTC le jour donné.

5 Précipitations totales tombées entre 06:00 UTC la jour donné et 06:00 UTC le lendemain.

Graphiques horaires